Terminal Aerodrome Forecast
Issued by NWS Wichita, KS

Home | Current Version | Previous Version | Graphics & Text | Print | Product List | Glossary On
Versions: 1 2 3 4 5 6 7 8 9 10 11 12 13 14
000
FTUS43 KICT 150500
TAFICT
TAF
KICT 150522Z 1506/1606 17013KT P6SM BKN200
     FM151300 22010KT P6SM BKN130
     FM151900 36010KT P6SM VCSH OVC040
     FM160000 04009KT P6SM VCSH OVC025=

USA.gov is the U.S. government's official web portal to all federal, state and local government web resources and services.